Time;durP1;ratioP1;P1;durP2;ratioP2;P2;SDS_P1;SDS_P2;PMS_P1;PMS_P2;Temp;Humidity;BMP_temperature;BMP_pressure;BME280_temperature;BME280_humidity;BME280_pressure;Samples;Min_cycle;Max_cycle;Signal;HPM_P1;HPM_P2
2023/03/23 01:35:38;;;;;;;26.05;20.52;;;14.10;86.10;;;;;;5069782;22;20526;-74
2023/03/23 01:38:03;;;;;;;31.30;20.50;;;14.10;86.10;;;;;;5075958;28;20360;-74
2023/03/23 01:40:29;;;;;;;31.30;20.45;;;14.00;85.30;;;;;;5075635;28;20033;-73
2023/03/23 01:42:55;;;;;;;27.70;19.90;;;14.00;85.40;;;;;;5057619;28;20496;-74
2023/03/23 01:45:24;;;;;;;26.27;20.15;;;14.00;85.00;;;;;;5075431;28;20360;-73
2023/03/23 01:48:02;;;;;;;25.58;20.05;;;14.00;84.70;;;;;;5075353;28;20522;-74
2023/03/23 01:50:34;;;;;;;25.45;19.10;;;13.90;85.00;;;;;;5075232;28;20051;-73
2023/03/23 01:53:04;;;;;;;26.52;19.85;;;13.90;84.70;;;;;;5080875;28;20096;-74
2023/03/23 01:55:30;;;;;;;28.92;19.70;;;13.90;84.30;;;;;;5076453;28;20056;-74
2023/03/23 01:57:57;;;;;;;24.27;19.77;;;13.80;84.20;;;;;;5075205;28;20036;-73
2023/03/23 02:00:24;;;;;;;26.67;19.63;;;13.90;84.00;;;;;;5056773;28;20053;-74
2023/03/23 02:02:51;;;;;;;27.63;19.52;;;13.90;83.80;;;;;;5057573;28;20094;-76
2023/03/23 02:05:53;;;;;;;28.27;19.80;;;13.80;83.80;;;;;;5075200;28;20028;-74
2023/03/23 02:08:19;;;;;;;24.55;18.85;;;13.70;84.10;;;;;;4974234;28;20045;-73
2023/03/23 02:10:45;;;;;;;24.63;18.77;;;13.70;85.20;;;;;;5055079;28;20459;-74
2023/03/23 02:13:12;;;;;;;22.27;18.30;;;13.70;84.80;;;;;;5074862;28;20056;-75
2023/03/23 02:16:05;;;;;;;23.02;18.60;;;13.70;84.70;;;;;;5074674;28;20388;-75
2023/03/23 02:18:50;;;;;;;25.92;18.15;;;13.70;84.50;;;;;;5074762;28;20039;-74
2023/03/23 02:21:43;;;;;;;24.38;17.90;;;13.70;84.60;;;;;;5074790;28;20071;-73
2023/03/23 02:24:27;;;;;;;21.95;17.40;;;13.70;84.40;;;;;;5075148;28;20037;-74
2023/03/23 02:27:05;;;;;;;23.38;16.90;;;13.70;84.70;;;;;;5074591;28;20134;-74
2023/03/23 02:29:30;;;;;;;25.95;18.13;;;13.60;84.50;;;;;;5056323;28;20033;-74
2023/03/23 02:32:05;;;;;;;25.00;17.35;;;13.70;84.20;;;;;;5074156;28;20163;-73
2023/03/23 02:34:40;;;;;;;26.73;18.20;;;13.70;84.20;;;;;;5074160;28;20032;-74
2023/03/23 02:37:24;;;;;;;24.10;18.00;;;13.70;84.70;;;;;;5074358;28;20128;-74
2023/03/23 02:39:56;;;;;;;22.98;17.80;;;13.60;84.50;;;;;;5074316;28;20037;-73
2023/03/23 02:42:31;;;;;;;20.77;17.45;;;13.60;84.20;;;;;;5073993;28;20060;-74
2023/03/23 02:45:02;;;;;;;21.90;17.65;;;13.60;84.30;;;;;;5056367;28;20043;-74
2023/03/23 02:47:30;;;;;;;23.08;17.85;;;13.60;84.30;;;;;;5074132;28;20239;-74
2023/03/23 02:49:58;;;;;;;23.58;17.65;;;13.50;84.40;;;;;;5074369;28;20090;-74
2023/03/23 02:52:30;;;;;;;25.40;18.13;;;13.50;84.70;;;;;;5073945;28;20048;-74
2023/03/23 02:54:59;;;;;;;24.45;18.02;;;13.40;84.70;;;;;;5055696;28;20071;-74
2023/03/23 02:57:27;;;;;;;23.65;18.23;;;13.40;84.40;;;;;;5056646;28;20025;-74
2023/03/23 02:59:53;;;;;;;24.85;18.30;;;13.50;84.70;;;;;;5073963;28;20033;-73
2023/03/23 03:02:24;;;;;;;25.17;18.98;;;13.50;84.80;;;;;;5073794;28;20036;-73
2023/03/23 03:05:31;;;;;;;28.50;19.05;;;13.40;84.70;;;;;;5073651;28;20029;-74
2023/03/23 03:08:09;;;;;;;23.92;18.25;;;13.40;84.70;;;;;;5073485;28;20131;-74
2023/03/23 03:10:53;;;;;;;39.28;19.67;;;13.40;84.80;;;;;;5056023;28;20036;-74
2023/03/23 03:13:40;;;;;;;26.52;19.60;;;13.40;84.70;;;;;;5073223;28;20033;-74
2023/03/23 03:16:30;;;;;;;24.75;20.20;;;13.40;84.90;;;;;;5073836;28;20040;-74
2023/03/23 03:18:56;;;;;;;28.67;20.08;;;13.30;84.60;;;;;;5055481;28;20033;-74
2023/03/23 03:21:27;;;;;;;29.33;19.20;;;13.30;84.90;;;;;;5073506;28;20051;-74
2023/03/23 03:23:56;;;;;;;26.35;20.63;;;13.20;85.00;;;;;;5073408;28;20048;-74
2023/03/23 03:26:26;;;;;;;30.90;21.92;;;13.20;85.40;;;;;;5055173;28;20134;-75
2023/03/23 03:28:53;;;;;;;32.80;23.40;;;13.20;85.50;;;;;;5073376;28;20111;-75
2023/03/23 03:31:27;;;;;;;31.60;22.77;;;13.10;86.20;;;;;;5073210;28;20039;-75
2023/03/23 03:33:53;;;;;;;32.67;23.45;;;13.10;85.40;;;;;;5073256;28;20368;-74
2023/03/23 03:36:34;;;;;;;30.77;24.65;;;13.20;85.90;;;;;;5073221;28;20048;-74
2023/03/23 03:39:04;;;;;;;32.47;27.35;;;13.20;85.60;;;;;;5073581;28;20032;-74
2023/03/23 03:41:30;;;;;;;36.85;26.65;;;13.20;85.90;;;;;;5073121;28;20079;-74
2023/03/23 03:43:56;;;;;;;31.52;26.70;;;13.10;85.90;;;;;;5073126;28;20029;-74
2023/03/23 03:46:26;;;;;;;33.65;27.20;;;13.10;85.90;;;;;;5072692;28;20044;-74
2023/03/23 03:48:52;;;;;;;30.40;26.48;;;13.20;86.40;;;;;;5073063;28;20488;-73
2023/03/23 03:51:18;;;;;;;35.38;27.75;;;13.20;86.30;;;;;;5073021;28;20086;-74
2023/03/23 03:53:43;;;;;;;33.85;27.77;;;13.20;86.20;;;;;;5073562;28;20124;-75
2023/03/23 03:56:09;;;;;;;32.00;26.02;;;13.20;86.20;;;;;;5074177;28;20056;-73
2023/03/23 03:58:35;;;;;;;33.08;26.52;;;13.20;86.30;;;;;;5074419;28;20033;-75
2023/03/23 04:01:03;;;;;;;37.92;28.10;;;13.20;86.40;;;;;;5072843;28;20048;-73
2023/03/23 04:03:29;;;;;;;33.28;27.15;;;13.20;86.60;;;;;;5072691;28;20508;-73
2023/03/23 04:05:55;;;;;;;37.20;29.40;;;13.20;86.80;;;;;;5072515;28;20075;-74
2023/03/23 04:08:22;;;;;;;39.00;28.25;;;13.20;86.90;;;;;;5073223;28;20044;-73
2023/03/23 04:10:49;;;;;;;38.40;29.80;;;13.20;87.00;;;;;;5073038;28;20388;-74
2023/03/23 04:13:15;;;;;;;40.25;29.35;;;13.20;87.00;;;;;;5072489;28;20068;-72
2023/03/23 04:15:41;;;;;;;36.63;30.05;;;13.20;86.90;;;;;;5072369;28;20162;-73
2023/03/23 04:18:06;;;;;;;35.38;29.10;;;13.20;87.00;;;;;;5072643;28;20068;-73
2023/03/23 04:20:34;;;;;;;36.58;30.70;;;13.20;87.10;;;;;;5072274;28;20068;-75
2023/03/23 04:23:01;;;;;;;36.70;29.35;;;13.20;87.20;;;;;;5072461;28;20029;-74
2023/03/23 04:25:27;;;;;;;35.80;30.13;;;13.20;87.10;;;;;;5071702;28;20090;-74
2023/03/23 04:27:53;;;;;;;36.47;28.83;;;13.20;86.90;;;;;;5054374;28;20040;-75
2023/03/23 04:30:24;;;;;;;41.35;29.55;;;13.10;87.10;;;;;;5072237;28;20025;-75
2023/03/23 04:32:51;;;;;;;36.70;28.50;;;13.10;87.30;;;;;;5072581;28;20139;-74
2023/03/23 04:35:20;;;;;;;33.53;29.17;;;13.10;87.30;;;;;;5071849;28;20068;-72
2023/03/23 04:37:46;;;;;;;35.47;27.67;;;13.00;87.50;;;;;;5072418;28;20159;-74
2023/03/23 04:40:14;;;;;;;35.30;26.95;;;13.00;87.60;;;;;;5072451;28;20107;-73
2023/03/23 04:42:45;;;;;;;32.47;26.33;;;13.00;87.50;;;;;;5072732;28;20068;-75
2023/03/23 04:45:14;;;;;;;30.90;25.70;;;12.90;87.60;;;;;;5072112;28;20033;-74
2023/03/23 04:47:40;;;;;;;29.35;23.40;;;12.90;87.80;;;;;;5072167;28;20443;-74
2023/03/23 04:50:09;;;;;;;30.15;22.90;;;12.80;87.50;;;;;;5072412;28;20455;-74
2023/03/23 04:52:37;;;;;;;32.45;24.30;;;12.70;87.70;;;;;;5072116;28;20041;-75
2023/03/23 04:55:07;;;;;;;29.55;22.27;;;12.80;87.90;;;;;;5072131;28;20035;-73
2023/03/23 04:57:34;;;;;;;28.20;23.13;;;12.80;87.20;;;;;;5072065;28;20190;-73
2023/03/23 05:00:08;;;;;;;33.38;23.08;;;12.80;87.90;;;;;;5072689;28;20037;-75
2023/03/23 05:02:35;;;;;;;;;;;12.80;87.90;;;;;;5072658;28;20045;-74
2023/03/23 05:05:01;;;;;;;26.90;21.30;;;12.80;87.80;;;;;;5072114;28;20394;-73
2023/03/23 05:07:26;;;;;;;33.03;21.80;;;12.80;87.10;;;;;;5072046;28;20068;-75
2023/03/23 05:09:52;;;;;;;29.50;20.98;;;12.80;87.20;;;;;;5071909;28;20402;-75
2023/03/23 05:12:18;;;;;;;27.88;20.67;;;12.80;87.10;;;;;;5071949;28;20037;-74
2023/03/23 05:14:44;;;;;;;28.23;20.95;;;12.80;87.00;;;;;;5072239;28;20044;-74
2023/03/23 05:17:09;;;;;;;23.25;20.00;;;12.80;87.10;;;;;;5071841;28;20033;-74
2023/03/23 05:19:36;;;;;;;25.35;20.48;;;12.80;87.30;;;;;;5072037;28;20045;-75
2023/03/23 05:22:02;;;;;;;30.08;20.08;;;12.80;87.10;;;;;;5072130;28;20111;-75
2023/03/23 05:24:31;;;;;;;27.67;21.00;;;12.80;86.90;;;;;;5071751;28;20043;-74
2023/03/23 05:26:57;;;;;;;28.35;21.92;;;12.80;87.00;;;;;;5071953;28;20029;-75
2023/03/23 05:29:23;;;;;;;29.33;21.30;;;12.90;87.20;;;;;;5072392;28;20033;-74
2023/03/23 05:31:49;;;;;;;27.42;22.42;;;12.90;87.00;;;;;;5054230;28;20360;-74
2023/03/23 05:34:15;;;;;;;26.67;20.67;;;12.90;86.90;;;;;;5072060;28;20153;-74
2023/03/23 05:36:43;;;;;;;28.00;20.65;;;12.90;87.00;;;;;;5056535;28;20087;-74
2023/03/23 05:39:10;;;;;;;28.10;22.52;;;12.90;87.00;;;;;;5075529;28;20028;-75
2023/03/23 05:41:37;;;;;;;37.08;21.35;;;12.90;87.00;;;;;;5075389;28;20035;-73
2023/03/23 05:44:03;;;;;;;27.15;21.83;;;12.90;87.00;;;;;;5075393;28;20033;-75
2023/03/23 05:46:29;;;;;;;30.05;21.30;;;12.90;86.80;;;;;;5075553;28;20037;-74
2023/03/23 05:48:55;;;;;;;28.38;20.73;;;12.90;87.30;;;;;;5075125;28;20064;-74
2023/03/23 05:51:20;;;;;;;27.92;20.98;;;12.90;86.90;;;;;;5075163;28;20507;-74
2023/03/23 05:53:47;;;;;;;24.98;20.13;;;12.90;86.90;;;;;;5056791;28;20054;-74
2023/03/23 05:56:14;;;;;;;26.38;19.67;;;13.00;87.00;;;;;;5074913;28;20036;-75
2023/03/23 05:58:40;;;;;;;29.13;20.65;;;13.00;87.00;;;;;;5074794;28;20024;-74
2023/03/23 06:01:07;;;;;;;22.25;18.35;;;13.10;86.90;;;;;;5074977;28;20025;-75
2023/03/23 06:03:32;;;;;;;22.58;17.75;;;13.10;86.70;;;;;;5075045;28;20432;-74
2023/03/23 06:05:58;;;;;;;26.13;18.60;;;13.10;86.40;;;;;;5074875;28;20041;-75
2023/03/23 06:08:24;;;;;;;21.25;17.05;;;13.20;86.20;;;;;;5056797;28;20033;-76
2023/03/23 06:10:50;;;;;;;24.63;18.65;;;13.20;86.10;;;;;;5075665;28;20557;-74
2023/03/23 06:13:16;;;;;;;21.20;17.40;;;13.30;85.60;;;;;;5057740;28;20040;-74
2023/03/23 06:15:42;;;;;;;23.08;17.63;;;13.40;85.40;;;;;;5075339;28;20536;-75
2023/03/23 06:18:08;;;;;;;24.48;17.80;;;13.50;85.00;;;;;;5075357;28;20029;-76
2023/03/23 06:20:35;;;;;;;23.42;17.17;;;13.70;84.90;;;;;;5075034;28;20033;-75
2023/03/23 06:23:03;;;;;;;24.85;18.45;;;13.90;84.40;;;;;;5056684;28;20036;-74
2023/03/23 06:25:29;;;;;;;24.60;17.17;;;14.00;83.80;;;;;;5060550;28;20112;-75
2023/03/23 06:27:54;;;;;;;20.40;16.77;;;14.10;82.90;;;;;;5063247;28;20036;-75
2023/03/23 06:30:21;;;;;;;18.67;16.20;;;14.20;82.70;;;;;;5054360;28;20080;-75
2023/03/23 06:32:47;;;;;;;21.67;16.77;;;14.30;82.50;;;;;;5053675;28;20064;-77
2023/03/23 06:35:14;;;;;;;23.83;15.98;;;14.50;82.20;;;;;;5054292;28;20029;-77
2023/03/23 06:37:40;;;;;;;23.35;16.60;;;14.70;81.80;;;;;;5053555;28;20118;-76
2023/03/23 06:40:08;;;;;;;18.88;16.05;;;15.00;81.60;;;;;;5054069;28;20075;-75
2023/03/23 06:42:33;;;;;;;24.52;16.30;;;15.00;81.20;;;;;;5054191;28;20072;-81
2023/03/23 06:45:00;;;;;;;22.05;15.82;;;15.10;80.80;;;;;;5054179;28;20481;-75
2023/03/23 06:47:29;;;;;;;24.55;15.68;;;15.20;80.70;;;;;;5053404;28;20068;-74
2023/03/23 06:49:55;;;;;;;20.60;15.43;;;15.40;80.60;;;;;;5053935;28;20134;-76
2023/03/23 06:52:22;;;;;;;17.98;15.13;;;15.50;79.90;;;;;;5060433;28;20090;-75
2023/03/23 06:54:49;;;;;;;19.42;14.73;;;15.60;79.90;;;;;;5074964;28;20032;-79
2023/03/23 06:57:15;;;;;;;18.73;14.15;;;15.60;79.60;;;;;;5056377;28;20068;-78
2023/03/23 06:59:41;;;;;;;19.27;15.43;;;15.80;79.50;;;;;;5074060;28;20456;-76
2023/03/23 07:02:13;;;;;;;22.38;14.85;;;15.90;79.00;;;;;;5074087;28;20119;-74
2023/03/23 07:04:40;;;;;;;24.48;17.48;;;15.90;78.60;;;;;;5073593;28;20029;-76
2023/03/23 07:07:10;;;;;;;18.92;14.70;;;16.00;78.50;;;;;;5073217;28;20041;-77
2023/03/23 07:09:36;;;;;;;19.35;14.43;;;16.10;78.30;;;;;;5073590;28;20503;-76
2023/03/23 07:12:02;;;;;;;20.92;14.40;;;16.20;77.70;;;;;;5073441;28;20036;-75
2023/03/23 07:14:28;;;;;;;17.20;13.93;;;16.30;77.60;;;;;;5073361;28;20083;-75
2023/03/23 07:16:54;;;;;;;22.80;14.48;;;16.40;77.50;;;;;;5073259;28;20041;-76
2023/03/23 07:19:20;;;;;;;20.40;13.88;;;16.50;76.80;;;;;;5073412;28;20040;-76
2023/03/23 07:21:46;;;;;;;18.45;13.25;;;16.70;76.70;;;;;;5055244;28;20031;-76
2023/03/23 07:24:16;;;;;;;18.75;13.77;;;16.80;75.90;;;;;;5073289;28;20376;-78
2023/03/23 07:26:41;;;;;;;17.70;13.10;;;16.90;75.60;;;;;;5073050;28;20500;-77
2023/03/23 07:29:08;;;;;;;17.65;12.15;;;17.00;75.00;;;;;;5072819;28;20028;-78
2023/03/23 07:31:34;;;;;;;16.58;12.35;;;17.00;74.60;;;;;;5073275;28;20032;-78
2023/03/23 07:34:00;;;;;;;17.30;11.80;;;17.00;74.10;;;;;;5073037;28;20071;-80
2023/03/23 07:36:26;;;;;;;18.52;12.30;;;17.00;74.00;;;;;;5073823;28;20040;-80
2023/03/23 07:38:52;;;;;;;15.20;12.15;;;17.00;73.80;;;;;;5074123;28;20033;-79
2023/03/23 07:41:19;;;;;;;16.70;12.13;;;17.00;73.30;;;;;;5070774;28;20087;-81
2023/03/23 07:43:45;;;;;;;15.48;11.85;;;17.00;73.50;;;;;;5073064;28;20116;-79
2023/03/23 07:46:11;;;;;;;16.85;11.70;;;17.00;73.30;;;;;;5079517;28;20547;-77
2023/03/23 07:48:37;;;;;;;16.35;11.50;;;17.10;73.10;;;;;;5066076;28;20094;-74
2023/03/23 07:51:03;;;;;;;15.25;11.57;;;17.20;72.80;;;;;;5052276;28;20432;-77
2023/03/23 07:53:29;;;;;;;17.38;10.68;;;17.10;72.60;;;;;;5073745;28;20502;-75
2023/03/23 07:55:55;;;;;;;13.20;10.65;;;17.10;72.20;;;;;;5070935;28;20028;-76
2023/03/23 07:58:21;;;;;;;14.90;11.10;;;17.10;71.80;;;;;;5082710;28;20031;-77
2023/03/23 08:00:48;;;;;;;15.07;11.80;;;17.00;71.90;;;;;;5074661;28;20032;-78
2023/03/23 08:03:15;;;;;;;16.33;11.48;;;17.00;71.90;;;;;;5092730;28;20039;-75
2023/03/23 08:05:42;;;;;;;15.55;10.68;;;16.90;71.90;;;;;;5092385;28;20036;-77
2023/03/23 08:08:09;;;;;;;16.80;10.52;;;16.90;71.70;;;;;;5080836;28;20051;-77
2023/03/23 08:10:35;;;;;;;13.98;10.18;;;16.90;71.80;;;;;;5071545;28;20115;-75
2023/03/23 08:13:02;;;;;;;13.50;9.82;;;17.00;72.00;;;;;;5072106;28;20496;-76
2023/03/23 08:15:28;;;;;;;17.08;11.20;;;17.10;71.70;;;;;;5072097;28;20134;-77
2023/03/23 08:17:55;;;;;;;16.50;11.65;;;17.10;71.80;;;;;;5070469;28;20028;-77
2023/03/23 08:20:25;;;;;;;16.92;12.55;;;17.10;71.30;;;;;;5087056;28;20115;-76
2023/03/23 08:22:56;;;;;;;19.83;13.02;;;17.20;71.50;;;;;;5093545;28;20071;-78
2023/03/23 08:25:24;;;;;;;19.55;12.63;;;17.20;70.90;;;;;;5092310;28;20024;-77
2023/03/23 08:27:50;;;;;;;21.67;11.63;;;17.20;71.10;;;;;;5083889;28;20093;-76
2023/03/23 08:30:22;;;;;;;20.20;13.05;;;17.30;71.40;;;;;;5061226;28;20119;-80
2023/03/23 08:32:49;;;;;;;23.92;13.38;;;17.30;70.70;;;;;;5069623;28;20195;-76
2023/03/23 08:35:15;;;;;;;18.40;12.60;;;17.30;70.80;;;;;;5068684;28;20168;-77
2023/03/23 08:37:41;;;;;;;18.08;12.70;;;17.30;70.70;;;;;;5070094;28;20589;-75
2023/03/23 08:40:09;;;;;;;16.83;12.02;;;17.40;70.70;;;;;;5058361;28;20045;-75
2023/03/23 08:42:37;;;;;;;14.60;11.45;;;17.40;70.40;;;;;;5051707;28;20025;-73
2023/03/23 08:45:08;;;;;;;18.80;13.02;;;17.40;69.70;;;;;;5065971;28;20540;-75
2023/03/23 08:47:35;;;;;;;22.52;12.18;;;17.40;70.00;;;;;;5048936;28;20045;-73
2023/03/23 08:50:01;;;;;;;17.20;11.30;;;17.40;69.40;;;;;;5069011;28;20025;-74
2023/03/23 08:52:28;;;;;;;14.65;10.45;;;17.30;68.80;;;;;;5071969;28;20043;-75
2023/03/23 08:54:54;;;;;;;25.25;12.18;;;17.30;69.00;;;;;;5068663;28;20033;-74
2023/03/23 08:57:20;;;;;;;18.73;11.77;;;17.40;69.20;;;;;;5069758;28;20098;-75
2023/03/23 08:59:46;;;;;;;18.20;11.20;;;17.40;68.90;;;;;;5069756;28;20696;-74
2023/03/23 09:02:12;;;;;;;16.05;11.15;;;17.40;68.80;;;;;;5065138;28;20040;-74
2023/03/23 09:04:44;;;;;;;13.40;9.25;;;17.50;68.70;;;;;;5067768;28;20036;-73
2023/03/23 09:07:12;;;;;;;17.35;8.90;;;17.50;68.30;;;;;;5065911;28;20525;-75
2023/03/23 09:09:39;;;;;;;17.55;8.32;;;17.50;67.80;;;;;;5080877;28;20028;-74
2023/03/23 09:12:07;;;;;;;14.18;9.20;;;17.50;67.20;;;;;;5095798;28;20032;-74
2023/03/23 09:14:32;;;;;;;14.70;8.60;;;17.50;66.80;;;;;;5095648;28;20085;-73
2023/03/23 09:16:58;;;;;;;25.92;12.52;;;17.50;66.80;;;;;;5095606;28;20035;-75
2023/03/23 09:19:24;;;;;;;19.65;10.55;;;17.50;66.60;;;;;;5091140;28;20407;-75
2023/03/23 09:21:50;;;;;;;13.32;10.35;;;17.50;66.60;;;;;;5095766;28;20024;-75
2023/03/23 09:24:16;;;;;;;15.65;9.00;;;17.60;66.60;;;;;;5066778;28;20064;-74
2023/03/23 09:26:42;;;;;;;15.32;9.88;;;17.60;66.30;;;;;;5074767;28;20170;-74
2023/03/23 09:29:08;;;;;;;15.23;10.88;;;17.70;66.30;;;;;;5077736;28;20025;-74
2023/03/23 09:31:36;;;;;;;15.98;11.77;;;17.80;66.50;;;;;;5095598;28;20032;-76
2023/03/23 09:34:03;;;;;;;17.63;13.00;;;17.90;66.60;;;;;;5095346;28;20107;-75
2023/03/23 09:36:30;;;;;;;19.05;13.05;;;18.00;66.70;;;;;;5095208;28;20051;-75
2023/03/23 09:38:57;;;;;;;17.17;12.95;;;18.00;67.10;;;;;;5086232;28;20024;-74
2023/03/23 09:41:44;;;;;;;16.20;12.63;;;18.10;67.30;;;;;;5095542;28;20028;-74
2023/03/23 09:44:35;;;;;;;22.75;13.63;;;18.20;67.50;;;;;;5062481;28;20049;-75
2023/03/23 09:47:22;;;;;;;14.90;11.45;;;18.30;68.40;;;;;;5036646;28;20189;-74
2023/03/23 09:50:03;;;;;;;16.35;11.07;;;18.40;67.50;;;;;;5070003;28;20380;-75
2023/03/23 09:52:44;;;;;;;17.42;11.23;;;18.50;67.50;;;;;;5058152;28;20083;-73
2023/03/23 09:55:15;;;;;;;17.80;10.98;;;18.50;67.30;;;;;;5054758;28;20044;-72
2023/03/23 09:57:48;;;;;;;15.05;9.30;;;18.50;66.90;;;;;;5057929;28;20122;-73
2023/03/23 10:00:39;;;;;;;14.63;9.07;;;18.60;66.50;;;;;;5071256;28;20033;-74
2023/03/23 10:03:05;;;;;;;13.88;9.20;;;18.70;66.60;;;;;;5074750;28;20547;-74
2023/03/23 10:05:52;;;;;;;14.35;7.97;;;18.80;65.90;;;;;;5071088;28;20112;-70
2023/03/23 10:08:27;;;;;;;16.08;6.63;;;18.90;65.60;;;;;;5079872;28;20024;-71
2023/03/23 10:10:55;;;;;;;10.65;6.40;;;18.90;64.20;;;;;;5094379;28;20032;-70
2023/03/23 10:13:46;;;;;;;15.70;6.10;;;19.00;63.30;;;;;;5094635;28;20032;-70
2023/03/23 10:16:19;;;;;;;11.98;5.32;;;19.10;63.20;;;;;;5094850;28;20036;-72
2023/03/23 10:18:55;;;;;;;7.40;5.00;;;19.20;62.30;;;;;;5089509;28;20118;-72
2023/03/23 10:21:23;;;;;;;8.85;4.85;;;19.20;62.60;;;;;;5075384;28;20047;-71
2023/03/23 10:23:59;;;;;;;8.75;4.72;;;19.30;61.90;;;;;;5093803;28;20024;-72
2023/03/23 10:26:29;;;;;;;9.13;4.88;;;19.40;62.20;;;;;;5093437;28;20075;-72
2023/03/23 10:29:01;;;;;;;13.45;5.38;;;19.50;62.20;;;;;;5080389;28;20082;-73
2023/03/23 10:31:35;;;;;;;13.85;5.65;;;19.60;61.40;;;;;;5075903;28;20032;-74
2023/03/23 10:34:36;;;;;;;14.13;5.80;;;19.60;61.40;;;;;;5074963;28;20086;-72
2023/03/23 10:37:19;;;;;;;12.73;5.63;;;19.80;61.90;;;;;;5073735;28;20044;-71
2023/03/23 10:39:51;;;;;;;11.50;6.05;;;19.80;61.80;;;;;;5072221;28;20565;-71
2023/03/23 10:42:32;;;;;;;11.80;6.45;;;20.00;62.00;;;;;;5055786;28;20032;-72
2023/03/23 10:45:15;;;;;;;11.55;6.70;;;20.00;61.90;;;;;;5073671;28;20040;-71
2023/03/23 10:47:46;;;;;;;9.97;7.53;;;20.10;61.60;;;;;;5072160;28;20041;-68
2023/03/23 10:50:21;;;;;;;11.07;5.78;;;20.20;61.80;;;;;;5068219;28;20036;-70
2023/03/23 10:52:52;;;;;;;9.90;6.40;;;20.30;61.50;;;;;;5073355;28;20059;-69
2023/03/23 10:55:22;;;;;;;11.48;5.70;;;20.40;61.20;;;;;;5073095;28;20114;-70
2023/03/23 10:58:03;;;;;;;8.85;5.45;;;20.40;61.00;;;;;;5071909;28;20131;-70
2023/03/23 11:00:30;;;;;;;9.27;5.10;;;20.50;60.10;;;;;;5070433;28;20419;-71
2023/03/23 11:03:22;;;;;;;10.02;5.72;;;20.50;60.20;;;;;;5073581;28;20087;-70
2023/03/23 11:06:00;;;;;;;10.05;6.22;;;20.50;59.90;;;;;;5073241;28;20062;-71
2023/03/23 11:08:33;;;;;;;9.60;5.88;;;20.50;60.00;;;;;;5074997;28;20056;-71
2023/03/23 11:11:15;;;;;;;9.23;6.07;;;20.60;59.80;;;;;;5073061;28;20033;-71
2023/03/23 11:13:51;;;;;;;14.02;6.78;;;20.70;59.50;;;;;;5071656;28;20044;-69
2023/03/23 11:16:31;;;;;;;10.57;6.03;;;20.80;60.20;;;;;;5073099;28;20033;-69
2023/03/23 11:18:59;;;;;;;12.75;6.13;;;20.90;59.10;;;;;;5069533;28;20171;-70
2023/03/23 11:21:26;;;;;;;11.90;6.00;;;20.90;60.60;;;;;;5072945;28;20029;-70
2023/03/23 11:23:59;;;;;;;11.48;5.45;;;21.00;59.40;;;;;;5058395;28;20037;-70
2023/03/23 11:26:28;;;;;;;10.23;5.70;;;21.00;59.70;;;;;;5052891;28;20049;-70
2023/03/23 11:29:11;;;;;;;7.95;5.80;;;21.10;59.50;;;;;;5078261;28;20484;-70
2023/03/23 11:31:44;;;;;;;9.05;5.68;;;21.20;58.40;;;;;;5092726;28;20032;-70
2023/03/23 11:34:26;;;;;;;9.37;5.23;;;21.30;58.80;;;;;;5092846;28;20043;-69
2023/03/23 11:36:59;;;;;;;12.07;5.78;;;21.40;58.80;;;;;;5092790;28;20039;-70
2023/03/23 11:39:27;;;;;;;11.43;5.13;;;21.50;58.20;;;;;;5077983;28;20098;-70
2023/03/23 11:41:56;;;;;;;14.80;5.57;;;21.60;57.90;;;;;;5058537;28;20041;-71
2023/03/23 11:44:31;;;;;;;13.40;5.82;;;21.60;57.80;;;;;;5034299;28;20095;-69
2023/03/23 11:47:23;;;;;;;12.38;5.30;;;21.60;57.70;;;;;;5052669;28;20480;-69
2023/03/23 11:50:29;;;;;;;10.13;6.05;;;21.70;56.50;;;;;;5063664;28;20456;-72
2023/03/23 11:53:07;;;;;;;13.20;5.72;;;21.70;56.20;;;;;;5069995;28;20032;-70
2023/03/23 11:55:45;;;;;;;13.27;5.72;;;21.80;57.50;;;;;;5062106;28;20072;-70
2023/03/23 11:58:14;;;;;;;11.10;5.80;;;21.90;57.10;;;;;;5057073;28;20138;-68
2023/03/23 12:00:54;;;;;;;11.82;5.72;;;22.00;57.00;;;;;;5061462;28;20057;-70
2023/03/23 12:03:20;;;;;;;8.07;4.70;;;22.10;57.30;;;;;;5054486;28;20045;-71
2023/03/23 12:05:53;;;;;;;7.38;4.30;;;22.10;57.10;;;;;;5057264;28;20033;-70
2023/03/23 12:08:50;;;;;;;9.40;4.65;;;22.20;57.00;;;;;;5062048;28;20033;-70
2023/03/23 12:12:00;;;;;;;8.13;3.92;;;22.30;55.30;;;;;;5064491;28;20028;-70
2023/03/23 12:14:51;;;;;;;7.88;3.85;;;22.30;54.70;;;;;;5054906;28;20116;-70
2023/03/23 12:17:43;;;;;;;13.55;4.57;;;22.30;54.90;;;;;;5059079;28;20029;-70
2023/03/23 12:20:16;;;;;;;8.05;3.38;;;22.40;56.50;;;;;;5082518;28;20444;-71
2023/03/23 12:22:59;;;;;;;8.05;3.53;;;22.50;54.40;;;;;;5091849;28;20067;-70
2023/03/23 12:25:28;;;;;;;6.00;3.40;;;22.50;54.00;;;;;;5062727;28;20405;-71
2023/03/23 12:28:19;;;;;;;13.05;4.57;;;22.60;55.30;;;;;;5063085;28;20107;-71
2023/03/23 12:31:07;;;;;;;6.90;3.20;;;22.60;53.40;;;;;;5066679;28;20025;-71
2023/03/23 12:33:50;;;;;;;6.10;3.00;;;22.60;53.00;;;;;;5056732;28;20138;-70
2023/03/23 12:36:31;;;;;;;6.55;2.55;;;22.60;52.30;;;;;;5050345;28;20045;-70
2023/03/23 12:39:12;;;;;;;7.07;2.85;;;22.60;51.90;;;;;;5083390;28;20472;-70
2023/03/23 12:41:52;;;;;;;6.25;2.35;;;22.60;51.80;;;;;;5090178;28;20028;-70
2023/03/23 12:44:26;;;;;;;5.32;2.10;;;22.60;52.50;;;;;;5069108;28;20059;-69
2023/03/23 12:47:06;;;;;;;7.03;2.80;;;22.60;52.20;;;;;;5062309;28;20044;-70
2023/03/23 12:49:41;;;;;;;6.95;2.58;;;22.70;51.10;;;;;;5084319;28;20024;-70
2023/03/23 12:52:24;;;;;;;17.30;4.20;;;22.80;51.00;;;;;;5069215;28;20037;-70
2023/03/23 12:54:56;;;;;;;5.88;2.22;;;22.90;50.60;;;;;;5069507;28;20040;-71
2023/03/23 12:57:42;;;;;;;5.75;2.17;;;23.00;51.50;;;;;;5055959;28;20507;-70
2023/03/23 13:00:17;;;;;;;11.13;2.72;;;23.00;50.80;;;;;;5084436;28;20048;-72
2023/03/23 13:03:05;;;;;;;11.90;2.90;;;23.00;51.00;;;;;;5068188;28;20029;-71
2023/03/23 13:05:46;;;;;;;6.32;2.65;;;23.10;51.10;;;;;;5065246;28;20068;-70
2023/03/23 13:08:17;;;;;;;6.57;2.10;;;23.10;50.30;;;;;;5077858;28;20131;-68
2023/03/23 13:10:48;;;;;;;5.15;2.20;;;23.10;50.80;;;;;;5073695;28;20032;-69
2023/03/23 13:13:22;;;;;;;6.75;2.42;;;23.10;50.70;;;;;;5075412;28;20041;-67
2023/03/23 13:15:48;;;;;;;;;;;23.10;50.50;;;;;;5075729;28;20067;-68
2023/03/23 13:18:20;;;;;;;7.50;2.78;;;23.00;50.10;;;;;;5072862;28;20292;-69
2023/03/23 13:21:00;;;;;;;6.13;2.53;;;23.00;50.80;;;;;;5063488;28;20068;-70
2023/03/23 13:23:37;;;;;;;7.20;2.88;;;22.90;50.20;;;;;;5055298;28;20116;-69
2023/03/23 13:26:11;;;;;;;9.07;3.20;;;23.00;49.50;;;;;;5069481;28;20040;-69
2023/03/23 13:29:05;;;;;;;10.10;2.90;;;23.00;49.40;;;;;;5070248;28;21452;-69
2023/03/23 13:31:36;;;;;;;4.90;2.55;;;23.00;49.10;;;;;;5070902;28;20063;-69
2023/03/23 13:34:06;;;;;;;7.82;2.80;;;23.10;49.90;;;;;;5061100;28;20021;-69
2023/03/23 13:36:40;;;;;;;5.30;2.42;;;23.20;48.90;;;;;;5063582;28;20049;-68
2023/03/23 13:39:35;;;;;;;7.55;2.88;;;23.30;49.70;;;;;;5044137;28;20079;-70
2023/03/23 13:42:17;;;;;;;5.93;2.38;;;23.20;48.10;;;;;;5065735;28;20033;-72
2023/03/23 13:44:49;;;;;;;4.43;2.30;;;23.10;49.00;;;;;;5068838;28;20032;-70
2023/03/23 13:47:20;;;;;;;6.32;2.28;;;23.10;49.20;;;;;;5074036;28;20044;-70
2023/03/23 13:50:17;;;;;;;9.50;2.58;;;23.20;48.20;;;;;;5080058;28;20067;-71
2023/03/23 13:52:49;;;;;;;3.53;1.83;;;23.20;48.20;;;;;;5056718;28;20388;-70
2023/03/23 13:55:41;;;;;;;7.32;2.53;;;23.20;48.50;;;;;;5064398;28;20083;-71
2023/03/23 13:58:12;;;;;;;5.75;2.50;;;23.20;48.50;;;;;;5069991;28;20515;-69
2023/03/23 14:00:51;;;;;;;6.50;2.30;;;23.20;49.90;;;;;;5056037;28;20040;-71
2023/03/23 14:03:33;;;;;;;6.95;2.15;;;23.10;48.30;;;;;;5074587;28;20036;-71
2023/03/23 14:05:58;;;;;;;4.20;2.10;;;23.00;48.30;;;;;;5073248;28;20045;-73
2023/03/23 14:08:27;;;;;;;5.82;2.47;;;23.00;48.70;;;;;;5045828;28;20059;-73
2023/03/23 14:11:05;;;;;;;7.72;2.40;;;23.00;49.20;;;;;;5064680;28;20366;-71
2023/03/23 14:13:45;;;;;;;6.07;1.83;;;23.00;48.90;;;;;;5054616;28;20029;-71
2023/03/23 14:16:20;;;;;;;6.68;2.17;;;22.90;48.90;;;;;;5060007;28;20044;-73
2023/03/23 14:19:15;;;;;;;7.60;1.83;;;23.00;47.80;;;;;;5064411;28;20088;-71
2023/03/23 14:21:48;;;;;;;4.10;1.55;;;23.00;46.70;;;;;;5024672;28;20042;-72
2023/03/23 14:24:24;;;;;;;4.18;1.73;;;22.90;47.10;;;;;;5070125;28;20531;-72
2023/03/23 14:26:53;;;;;;;6.45;1.70;;;22.90;45.90;;;;;;5067403;28;20455;-70
2023/03/23 14:29:21;;;;;;;7.05;1.33;;;22.90;46.90;;;;;;5068822;28;20037;-72
2023/03/23 14:31:57;;;;;;;6.03;1.75;;;22.80;46.60;;;;;;5060739;28;20041;-72